Time;durP1;ratioP1;P1;durP2;ratioP2;P2;SDS_P1;SDS_P2;PMS_P1;PMS_P2;Temp;Humidity;BMP_temperature;BMP_pressure;BME280_temperature;BME280_humidity;BME280_pressure;Samples;Min_cycle;Max_cycle;Signal;HPM_P1;HPM_P2
2021/08/23 00:00:12;;;;;;;7.00;6.30;;;18.70;99.90;;;;;;5053473;28;20511;-63
2021/08/23 00:02:38;;;;;;;8.93;6.75;;;18.70;99.90;;;;;;5053512;28;20021;-63
2021/08/23 00:05:04;;;;;;;7.95;7.25;;;18.70;99.90;;;;;;5053611;28;20029;-63
2021/08/23 00:07:29;;;;;;;8.43;7.72;;;18.70;99.90;;;;;;5053662;28;20535;-63
2021/08/23 00:09:55;;;;;;;8.75;7.97;;;18.70;99.90;;;;;;5053500;28;20025;-63
2021/08/23 00:12:21;;;;;;;10.25;9.35;;;18.70;99.90;;;;;;5053379;28;20503;-63
2021/08/23 00:14:47;;;;;;;11.70;10.40;;;18.70;99.90;;;;;;5053360;28;20084;-63
2021/08/23 00:17:12;;;;;;;11.98;10.88;;;18.70;99.90;;;;;;5053370;28;20047;-63
2021/08/23 00:19:38;;;;;;;12.35;11.18;;;18.70;99.90;;;;;;5053225;28;20530;-63
2021/08/23 00:22:20;;;;;;;12.02;10.93;;;18.70;99.90;;;;;;5053055;28;20477;-63
2021/08/23 00:24:50;;;;;;;12.10;11.00;;;18.70;99.90;;;;;;5053352;28;20013;-63
2021/08/23 00:27:16;;;;;;;12.60;11.35;;;18.70;99.90;;;;;;5053118;28;20021;-63
2021/08/23 00:29:42;;;;;;;13.35;12.15;;;18.60;99.90;;;;;;5053153;28;20028;-63
2021/08/23 00:32:08;;;;;;;14.82;13.45;;;18.60;99.90;;;;;;5052978;28;20451;-63
2021/08/23 00:34:33;;;;;;;15.82;14.40;;;18.60;99.90;;;;;;5053045;28;20069;-64
2021/08/23 00:36:59;;;;;;;16.88;15.27;;;18.60;99.90;;;;;;5052846;28;20484;-63
2021/08/23 00:39:24;;;;;;;15.15;13.65;;;18.60;99.90;;;;;;5053012;28;20098;-63
2021/08/23 00:41:50;;;;;;;15.05;13.57;;;18.60;99.90;;;;;;5053056;28;20013;-63
2021/08/23 00:44:15;;;;;;;16.73;15.13;;;18.60;99.90;;;;;;5052786;28;20021;-63
2021/08/23 00:46:41;;;;;;;15.05;13.52;;;18.50;99.90;;;;;;5052559;28;20449;-63
2021/08/23 00:49:06;;;;;;;16.65;14.98;;;18.50;99.90;;;;;;5052714;28;20033;-63
2021/08/23 00:51:32;;;;;;;16.17;14.63;;;18.50;99.90;;;;;;5052743;28;20071;-63
2021/08/23 00:53:58;;;;;;;13.60;12.30;;;18.50;99.90;;;;;;5047439;28;20025;-63
2021/08/23 00:56:23;;;;;;;15.15;13.65;;;18.60;99.90;;;;;;5052678;28;20127;-63
2021/08/23 00:58:50;;;;;;;14.50;13.20;;;18.50;99.90;;;;;;5052612;28;20067;-63
2021/08/23 01:01:26;;;;;;;16.92;15.23;;;18.50;99.90;;;;;;5052271;28;20021;-63
2021/08/23 01:04:00;;;;;;;15.18;13.68;;;18.50;99.90;;;;;;5052553;28;20017;-63
2021/08/23 01:06:27;;;;;;;17.45;15.65;;;18.50;99.90;;;;;;5052481;28;20040;-63
2021/08/23 01:08:59;;;;;;;14.32;12.82;;;18.50;99.90;;;;;;5052790;28;20432;-63
2021/08/23 01:11:27;;;;;;;13.18;11.88;;;18.50;99.90;;;;;;5034533;28;20028;-63
2021/08/23 01:13:53;;;;;;;15.20;13.60;;;18.50;99.90;;;;;;5052258;28;20033;-63
2021/08/23 01:16:19;;;;;;;15.23;13.50;;;18.40;99.90;;;;;;5031521;28;20503;-63
2021/08/23 01:18:45;;;;;;;13.82;12.52;;;18.30;99.90;;;;;;5052435;28;20025;-63
2021/08/23 01:21:14;;;;;;;11.38;10.27;;;18.30;99.90;;;;;;5051042;28;20028;-63
2021/08/23 01:23:42;;;;;;;11.90;10.68;;;18.40;99.90;;;;;;5051257;28;20013;-63
2021/08/23 01:26:10;;;;;;;11.98;10.77;;;18.30;99.90;;;;;;5052183;28;20087;-63
2021/08/23 01:28:48;;;;;;;13.32;10.00;;;18.30;99.90;;;;;;5052008;28;20499;-63
2021/08/23 01:31:24;;;;;;;11.10;9.20;;;18.30;99.90;;;;;;5051947;28;20063;-63
2021/08/23 01:33:50;;;;;;;9.93;8.93;;;18.30;99.90;;;;;;5050630;28;20025;-63
2021/08/23 01:36:16;;;;;;;9.73;8.73;;;18.30;99.90;;;;;;5051890;28;20381;-63
2021/08/23 01:38:42;;;;;;;10.88;9.77;;;18.30;99.90;;;;;;5052101;28;20472;-63
2021/08/23 01:41:09;;;;;;;9.27;8.30;;;18.30;99.90;;;;;;5051718;28;20056;-63
2021/08/23 01:43:35;;;;;;;10.13;9.10;;;18.30;99.90;;;;;;5051779;28;20488;-63
2021/08/23 01:46:01;;;;;;;11.10;10.00;;;18.20;99.90;;;;;;5051725;28;20065;-63
2021/08/23 01:48:27;;;;;;;10.82;9.73;;;18.20;99.90;;;;;;5051633;28;20053;-63
2021/08/23 01:50:52;;;;;;;16.10;13.85;;;18.20;99.90;;;;;;5051843;28;20032;-63
2021/08/23 01:53:18;;;;;;;13.98;12.48;;;18.20;99.90;;;;;;5049249;28;20068;-63
2021/08/23 01:55:44;;;;;;;14.90;11.80;;;18.20;99.90;;;;;;5051615;28;20052;-63
2021/08/23 01:58:10;;;;;;;13.73;12.15;;;18.20;99.90;;;;;;5051621;28;20092;-63
2021/08/23 02:00:36;;;;;;;13.90;12.45;;;18.20;99.90;;;;;;5051607;28;20520;-63
2021/08/23 02:03:01;;;;;;;14.20;12.82;;;18.20;99.90;;;;;;5051534;28;20021;-63
2021/08/23 02:05:28;;;;;;;15.30;13.73;;;18.20;99.90;;;;;;5033724;28;20473;-63
2021/08/23 02:07:54;;;;;;;14.85;13.35;;;18.20;99.90;;;;;;5051656;28;20021;-63
2021/08/23 02:10:20;;;;;;;18.02;16.23;;;18.10;99.90;;;;;;5051209;28;20017;-63
2021/08/23 02:12:45;;;;;;;16.42;14.73;;;18.10;99.90;;;;;;5051569;28;20033;-63
2021/08/23 02:15:11;;;;;;;15.55;13.95;;;18.10;99.90;;;;;;5031102;28;20024;-63
2021/08/23 02:17:36;;;;;;;15.50;13.63;;;18.10;99.90;;;;;;5052087;28;20107;-63
2021/08/23 02:20:05;;;;;;;17.58;15.27;;;18.10;99.90;;;;;;5055660;28;20465;-63
2021/08/23 02:22:31;;;;;;;15.88;14.35;;;18.10;99.90;;;;;;5055528;28;20365;-63
2021/08/23 02:24:56;;;;;;;16.13;14.45;;;18.00;99.90;;;;;;5055346;28;20037;-63
2021/08/23 02:27:22;;;;;;;15.15;13.23;;;18.00;99.90;;;;;;5055598;28;20021;-63
2021/08/23 02:29:47;;;;;;;18.25;16.38;;;18.00;99.90;;;;;;5037578;28;20025;-63
2021/08/23 02:32:13;;;;;;;17.63;15.38;;;18.00;99.90;;;;;;5055508;28;20094;-63
2021/08/23 02:34:38;;;;;;;19.77;17.67;;;18.00;99.90;;;;;;5055035;28;20016;-63
2021/08/23 02:37:04;;;;;;;18.17;16.27;;;18.00;99.90;;;;;;5055291;28;20480;-63
2021/08/23 02:39:29;;;;;;;17.52;15.65;;;18.00;99.90;;;;;;5055211;28;20029;-63
2021/08/23 02:41:55;;;;;;;16.45;14.32;;;17.90;99.90;;;;;;5055192;28;20014;-63
2021/08/23 02:44:21;;;;;;;18.00;15.77;;;17.90;99.90;;;;;;5055767;28;20078;-63
2021/08/23 02:46:47;;;;;;;24.13;19.70;;;17.90;99.90;;;;;;5055272;28;20049;-63
2021/08/23 02:49:13;;;;;;;23.10;18.75;;;18.00;99.90;;;;;;5055018;28;20492;-63
2021/08/23 02:51:38;;;;;;;22.05;19.08;;;17.90;99.90;;;;;;5036811;28;20029;-63
2021/08/23 02:54:04;;;;;;;22.80;19.45;;;17.90;99.90;;;;;;5034858;28;20025;-63
2021/08/23 02:56:29;;;;;;;22.63;18.42;;;17.90;99.90;;;;;;5037067;28;20025;-63
2021/08/23 02:58:55;;;;;;;25.00;20.20;;;17.90;99.90;;;;;;5054790;28;20084;-63
2021/08/23 03:01:20;;;;;;;23.88;19.48;;;17.90;99.90;;;;;;5054713;28;20029;-63
2021/08/23 03:03:46;;;;;;;25.10;19.33;;;17.90;99.90;;;;;;5054629;28;20021;-63
2021/08/23 03:06:12;;;;;;;24.98;20.13;;;17.90;99.90;;;;;;5054873;28;20522;-63
2021/08/23 03:08:38;;;;;;;27.30;19.73;;;17.90;99.90;;;;;;5054454;28;20042;-63
2021/08/23 03:11:05;;;;;;;23.95;19.55;;;18.00;99.90;;;;;;5054725;28;20017;-63
2021/08/23 03:13:31;;;;;;;23.25;19.20;;;18.00;99.90;;;;;;5054574;28;20029;-63
2021/08/23 03:15:56;;;;;;;22.58;17.02;;;18.00;99.90;;;;;;5054166;28;20035;-63
2021/08/23 03:18:22;;;;;;;23.17;19.50;;;18.00;99.90;;;;;;5054720;28;20056;-63
2021/08/23 03:20:47;;;;;;;22.92;18.55;;;18.00;99.90;;;;;;5054253;28;20025;-63
2021/08/23 03:23:13;;;;;;;23.13;17.40;;;18.00;99.90;;;;;;5054382;28;20029;-63
2021/08/23 03:25:38;;;;;;;19.95;15.48;;;18.00;99.90;;;;;;5052183;28;20021;-63
2021/08/23 03:28:04;;;;;;;16.55;14.13;;;18.00;99.90;;;;;;5054212;28;20032;-63
2021/08/23 03:30:29;;;;;;;18.15;15.93;;;18.00;99.90;;;;;;5053008;28;20028;-63
2021/08/23 03:32:55;;;;;;;19.20;14.63;;;18.00;99.90;;;;;;5054232;28;20021;-63
2021/08/23 03:35:20;;;;;;;18.58;14.70;;;18.00;99.90;;;;;;5053945;28;20025;-63
2021/08/23 03:37:46;;;;;;;16.90;13.93;;;18.00;99.90;;;;;;5054026;28;20020;-63
2021/08/23 03:40:12;;;;;;;16.17;13.27;;;18.00;99.90;;;;;;5054094;28;20056;-63
2021/08/23 03:42:37;;;;;;;15.82;13.77;;;18.00;99.90;;;;;;5053993;28;20029;-63
2021/08/23 03:45:03;;;;;;;17.90;15.32;;;17.90;99.90;;;;;;5053989;28;20017;-63
2021/08/23 03:47:29;;;;;;;17.00;14.45;;;17.90;99.90;;;;;;5053982;28;20497;-63
2021/08/23 03:50:02;;;;;;;16.38;13.55;;;17.90;99.90;;;;;;5035867;28;20017;-63
2021/08/23 03:52:28;;;;;;;17.67;14.82;;;17.90;99.90;;;;;;5031803;28;20104;-63
2021/08/23 03:54:53;;;;;;;14.75;12.15;;;17.90;99.90;;;;;;5036062;28;20074;-63
2021/08/23 03:57:19;;;;;;;18.40;13.65;;;17.90;99.90;;;;;;5035636;28;20021;-63
2021/08/23 03:59:44;;;;;;;17.00;14.18;;;17.90;99.90;;;;;;5051709;28;20021;-63
2021/08/23 04:02:10;;;;;;;16.25;13.60;;;17.80;99.90;;;;;;5053598;28;20016;-63
2021/08/23 04:04:35;;;;;;;17.50;14.90;;;17.80;99.90;;;;;;5053837;28;20026;-63
2021/08/23 04:07:01;;;;;;;20.42;16.98;;;17.80;99.90;;;;;;5053211;28;20032;-63
2021/08/23 04:09:26;;;;;;;16.80;14.75;;;17.80;99.90;;;;;;5053716;28;20040;-63
2021/08/23 04:11:52;;;;;;;18.08;14.38;;;17.80;99.90;;;;;;5053472;28;20029;-63
2021/08/23 04:14:18;;;;;;;19.58;15.68;;;17.80;99.90;;;;;;5053317;28;20396;-63
2021/08/23 04:16:43;;;;;;;24.95;17.50;;;17.80;99.90;;;;;;5053519;28;20361;-63
2021/08/23 04:19:09;;;;;;;23.75;17.65;;;17.80;99.90;;;;;;5053412;28;20463;-63
2021/08/23 04:21:34;;;;;;;22.00;17.20;;;17.80;99.90;;;;;;5053193;28;20036;-63
2021/08/23 04:24:00;;;;;;;22.05;18.73;;;17.80;99.90;;;;;;5053114;28;20021;-63
2021/08/23 04:26:25;;;;;;;23.92;18.52;;;17.80;99.90;;;;;;5053354;28;20503;-63
2021/08/23 04:28:51;;;;;;;22.00;17.50;;;17.80;99.90;;;;;;5053426;28;20032;-63
2021/08/23 04:31:16;;;;;;;20.88;16.15;;;17.80;99.90;;;;;;5051689;28;21157;-63
2021/08/23 04:33:45;;;;;;;21.33;17.55;;;17.80;99.90;;;;;;5053042;28;20043;-63
2021/08/23 04:36:11;;;;;;;22.23;17.47;;;17.70;99.90;;;;;;5052710;28;20049;-63
2021/08/23 04:38:37;;;;;;;21.48;17.35;;;17.70;99.90;;;;;;5052940;28;20064;-63
2021/08/23 04:41:02;;;;;;;25.42;20.05;;;17.70;99.90;;;;;;5034629;28;20041;-63
2021/08/23 04:43:28;;;;;;;24.55;19.52;;;17.70;99.90;;;;;;5052898;28;20080;-63
2021/08/23 04:45:53;;;;;;;31.33;22.25;;;17.70;99.90;;;;;;5052834;28;20095;-63
2021/08/23 04:48:19;;;;;;;31.27;22.98;;;17.70;99.90;;;;;;5052733;28;20021;-63
2021/08/23 04:50:44;;;;;;;25.70;20.10;;;17.60;99.90;;;;;;5052591;28;20024;-63
2021/08/23 04:53:10;;;;;;;28.02;21.33;;;17.60;99.90;;;;;;5032174;28;20412;-63
2021/08/23 04:55:35;;;;;;;29.52;21.02;;;17.50;99.90;;;;;;5052794;28;20044;-63
2021/08/23 04:58:01;;;;;;;26.33;19.85;;;17.50;99.90;;;;;;5052514;28;20017;-63
2021/08/23 05:00:26;;;;;;;23.35;17.75;;;17.50;99.90;;;;;;5052569;28;20021;-63
2021/08/23 05:02:52;;;;;;;25.20;19.88;;;17.50;99.90;;;;;;5052549;28;20083;-63
2021/08/23 05:05:17;;;;;;;23.23;18.33;;;17.40;99.90;;;;;;5052246;28;20154;-63
2021/08/23 05:07:43;;;;;;;19.88;16.20;;;17.40;99.90;;;;;;5031872;28;20024;-63
2021/08/23 05:10:09;;;;;;;20.65;15.93;;;17.40;99.90;;;;;;5052412;28;20099;-63
2021/08/23 05:12:34;;;;;;;22.58;16.70;;;17.40;99.90;;;;;;5052788;28;20431;-63
2021/08/23 05:15:00;;;;;;;20.85;16.58;;;17.40;99.90;;;;;;5052050;28;20400;-63
2021/08/23 05:17:25;;;;;;;19.77;16.08;;;17.30;99.90;;;;;;5052407;28;20029;-63
2021/08/23 05:19:52;;;;;;;19.40;14.95;;;17.30;99.90;;;;;;5051905;28;20103;-63
2021/08/23 05:22:17;;;;;;;19.48;15.10;;;17.30;99.90;;;;;;5051569;28;20021;-63
2021/08/23 05:24:43;;;;;;;22.02;16.67;;;17.30;99.90;;;;;;5051160;28;20032;-63
2021/08/23 05:27:08;;;;;;;21.10;16.77;;;17.30;99.90;;;;;;5052148;28;20039;-63
2021/08/23 05:29:34;;;;;;;21.67;15.73;;;17.30;99.90;;;;;;5052057;28;20029;-63
2021/08/23 05:31:59;;;;;;;23.00;16.52;;;17.20;99.90;;;;;;5051680;28;20061;-63
2021/08/23 05:34:25;;;;;;;19.00;15.25;;;17.20;99.90;;;;;;5051877;28;20029;-63
2021/08/23 05:36:51;;;;;;;19.83;15.25;;;17.20;99.90;;;;;;5052269;28;20507;-63
2021/08/23 05:39:16;;;;;;;18.80;14.68;;;17.30;99.90;;;;;;5034168;28;20387;-63
2021/08/23 05:41:42;;;;;;;18.45;13.55;;;17.30;99.90;;;;;;5051979;28;20052;-63
2021/08/23 05:44:07;;;;;;;19.65;15.25;;;17.30;99.90;;;;;;5051874;28;20416;-63
2021/08/23 05:46:33;;;;;;;16.67;13.55;;;17.20;99.90;;;;;;5043944;28;20525;-64
2021/08/23 05:48:58;;;;;;;21.13;16.15;;;17.20;99.90;;;;;;5045365;28;20033;-64
2021/08/23 05:51:23;;;;;;;19.42;14.73;;;17.20;99.90;;;;;;5052248;28;20033;-64
2021/08/23 05:53:49;;;;;;;17.65;13.52;;;17.20;99.90;;;;;;5051715;28;20078;-63
2021/08/23 05:56:14;;;;;;;17.10;14.07;;;17.20;99.90;;;;;;5052563;28;20037;-63
2021/08/23 05:58:40;;;;;;;17.92;12.98;;;17.20;99.90;;;;;;5034737;28;20032;-64
2021/08/23 06:01:06;;;;;;;17.50;13.18;;;17.20;99.90;;;;;;5052549;28;20025;-64
2021/08/23 06:03:32;;;;;;;19.58;14.07;;;17.30;99.90;;;;;;5034802;28;20025;-63
2021/08/23 06:06:03;;;;;;;17.35;13.38;;;17.20;99.90;;;;;;5052306;28;20104;-63
2021/08/23 06:08:29;;;;;;;19.02;14.60;;;17.30;99.90;;;;;;5034596;28;20029;-63
2021/08/23 06:10:54;;;;;;;16.20;13.02;;;17.30;99.90;;;;;;5053859;28;20037;-63
2021/08/23 06:13:20;;;;;;;16.13;12.20;;;17.30;99.90;;;;;;5051537;28;20025;-64
2021/08/23 06:15:45;;;;;;;19.08;14.10;;;17.30;99.90;;;;;;5052204;28;20480;-63
2021/08/23 06:18:11;;;;;;;16.83;14.07;;;17.30;99.90;;;;;;5051165;28;20116;-63
2021/08/23 06:20:36;;;;;;;16.92;13.75;;;17.40;99.90;;;;;;5034611;28;20040;-63
2021/08/23 06:23:02;;;;;;;16.60;12.50;;;17.40;99.90;;;;;;5052212;28;20492;-63
2021/08/23 06:25:27;;;;;;;14.23;12.10;;;17.40;99.90;;;;;;5052283;28;20104;-63
2021/08/23 06:27:53;;;;;;;16.30;13.73;;;17.40;99.90;;;;;;5052399;28;20151;-63
2021/08/23 06:30:18;;;;;;;14.00;12.38;;;17.40;99.90;;;;;;5052074;28;20021;-63
2021/08/23 06:32:44;;;;;;;14.57;13.07;;;17.40;99.90;;;;;;5051991;28;20037;-63
2021/08/23 06:35:09;;;;;;;14.30;12.18;;;17.50;99.90;;;;;;5051712;28;20036;-63
2021/08/23 06:37:36;;;;;;;14.23;12.27;;;17.40;99.90;;;;;;5051282;28;20393;-64
2021/08/23 06:40:07;;;;;;;16.38;14.32;;;17.50;99.90;;;;;;5050903;28;20530;-63
2021/08/23 06:42:33;;;;;;;17.15;13.80;;;17.50;99.90;;;;;;5050754;28;20036;-64
2021/08/23 06:44:58;;;;;;;15.70;12.85;;;17.50;99.90;;;;;;5051740;28;20017;-64
2021/08/23 06:47:24;;;;;;;15.88;13.85;;;17.50;99.90;;;;;;5051542;28;20053;-63
2021/08/23 06:49:49;;;;;;;18.83;14.60;;;17.50;99.90;;;;;;5033673;28;20032;-63
2021/08/23 06:52:16;;;;;;;17.25;13.93;;;17.50;99.90;;;;;;5051823;28;20049;-63
2021/08/23 06:54:41;;;;;;;16.52;13.82;;;17.50;99.90;;;;;;5051092;28;20396;-64
2021/08/23 06:57:07;;;;;;;13.38;11.98;;;17.50;99.90;;;;;;5049482;28;20032;-63
2021/08/23 06:59:32;;;;;;;12.30;10.98;;;17.50;99.90;;;;;;5050979;28;20020;-63
2021/08/23 07:01:58;;;;;;;13.68;11.57;;;17.60;99.90;;;;;;5051421;28;20029;-64
2021/08/23 07:04:23;;;;;;;14.57;11.60;;;17.60;99.90;;;;;;5054226;28;20013;-63
2021/08/23 07:06:49;;;;;;;13.70;11.00;;;17.70;99.90;;;;;;5055573;28;20094;-64
2021/08/23 07:09:14;;;;;;;14.05;11.60;;;17.70;99.90;;;;;;5054828;28;20542;-63
2021/08/23 07:11:40;;;;;;;15.27;11.00;;;17.80;99.90;;;;;;5055316;28;20040;-64
2021/08/23 07:14:05;;;;;;;13.18;10.98;;;17.90;99.90;;;;;;5037826;28;20028;-64
2021/08/23 07:16:31;;;;;;;12.90;9.88;;;18.00;99.90;;;;;;5054794;28;20104;-64
2021/08/23 07:18:56;;;;;;;13.80;8.38;;;18.10;99.90;;;;;;5055396;28;20037;-64
2021/08/23 07:21:22;;;;;;;22.00;9.20;;;18.20;99.90;;;;;;5055201;28;20500;-64
2021/08/23 07:23:48;;;;;;;9.40;8.20;;;18.30;99.90;;;;;;5037459;28;20025;-63
2021/08/23 07:26:14;;;;;;;11.25;9.27;;;18.30;99.90;;;;;;5055087;28;20082;-64
2021/08/23 07:28:40;;;;;;;10.02;7.88;;;18.30;99.90;;;;;;5055186;28;20468;-64
2021/08/23 07:31:06;;;;;;;10.27;7.57;;;18.40;99.90;;;;;;5054938;28;20076;-64
2021/08/23 07:33:31;;;;;;;9.65;7.45;;;18.50;99.90;;;;;;5054915;28;20542;-64
2021/08/23 07:35:57;;;;;;;8.90;6.55;;;18.60;99.90;;;;;;5055012;28;20053;-64
2021/08/23 07:38:23;;;;;;;8.82;7.38;;;18.70;99.90;;;;;;5054934;28;20487;-64
2021/08/23 07:40:48;;;;;;;7.60;6.78;;;18.70;99.90;;;;;;5054679;28;20440;-63
2021/08/23 07:43:14;;;;;;;7.38;6.13;;;18.70;99.90;;;;;;5054116;28;20112;-63
2021/08/23 07:45:39;;;;;;;7.75;6.05;;;18.70;99.90;;;;;;5053841;28;20499;-63
2021/08/23 07:48:06;;;;;;;9.70;6.47;;;18.80;99.80;;;;;;5054377;28;20052;-63
2021/08/23 07:50:31;;;;;;;8.13;5.75;;;18.70;99.40;;;;;;5053902;28;20021;-63
2021/08/23 07:52:57;;;;;;;7.35;5.60;;;18.80;99.40;;;;;;5036977;28;20048;-63
2021/08/23 07:55:23;;;;;;;9.00;6.45;;;18.90;99.40;;;;;;5054317;28;20029;-64
2021/08/23 07:57:49;;;;;;;7.75;5.53;;;18.90;99.20;;;;;;5053352;28;20500;-64
2021/08/23 08:00:17;;;;;;;7.50;5.50;;;19.00;99.10;;;;;;5054877;28;20060;-63
2021/08/23 08:02:43;;;;;;;6.80;4.72;;;19.00;98.90;;;;;;5036598;28;20017;-64
2021/08/23 08:05:10;;;;;;;7.32;5.22;;;19.00;98.80;;;;;;5054630;28;20078;-64
2021/08/23 08:07:37;;;;;;;5.75;4.25;;;19.00;98.80;;;;;;5054398;28;20029;-64
2021/08/23 08:10:04;;;;;;;9.75;5.57;;;19.10;98.70;;;;;;5054365;28;20025;-64
2021/08/23 08:12:30;;;;;;;9.20;6.38;;;19.10;98.50;;;;;;5036255;28;20362;-64
2021/08/23 08:14:56;;;;;;;6.90;4.85;;;19.00;98.20;;;;;;5053597;28;20032;-64
2021/08/23 08:17:22;;;;;;;5.63;4.15;;;19.10;98.30;;;;;;5051310;28;20025;-64
2021/08/23 08:19:47;;;;;;;5.18;3.95;;;19.20;98.30;;;;;;5048158;28;20027;-64
2021/08/23 08:22:14;;;;;;;7.60;4.65;;;19.30;98.20;;;;;;5053676;28;20029;-64
2021/08/23 08:24:40;;;;;;;6.35;4.45;;;19.40;98.00;;;;;;5054176;28;20017;-64
2021/08/23 08:27:05;;;;;;;5.35;4.13;;;19.60;97.80;;;;;;5053399;28;20029;-64
2021/08/23 08:29:32;;;;;;;4.85;3.47;;;19.60;97.70;;;;;;5052669;28;20534;-64
2021/08/23 08:32:12;;;;;;;5.80;3.65;;;19.70;97.50;;;;;;5052963;28;20033;-64
2021/08/23 08:34:38;;;;;;;5.35;3.50;;;19.80;97.30;;;;;;5052801;28;20049;-64
2021/08/23 08:37:04;;;;;;;5.22;3.35;;;19.90;97.20;;;;;;5052536;28;20029;-64
2021/08/23 08:42:42;;;;;;;;;;;;;;;;;;;;;
2021/08/23 08:45:08;;;;;;;6.70;3.28;;;20.00;96.30;;;;;;5053766;28;20781;-62
2021/08/23 08:47:35;;;;;;;4.40;2.75;;;19.90;96.20;;;;;;5053637;28;20140;-61
2021/08/23 08:50:03;;;;;;;8.00;3.47;;;19.90;96.20;;;;;;5052384;28;20033;-62
2021/08/23 08:52:31;;;;;;;5.30;3.15;;;19.90;96.10;;;;;;5041497;28;20032;-62
2021/08/23 08:55:03;;;;;;;4.33;2.30;;;19.90;96.00;;;;;;5035652;28;20082;-62
2021/08/23 08:57:28;;;;;;;4.70;3.03;;;20.00;96.10;;;;;;5053353;28;20108;-61
2021/08/23 08:59:54;;;;;;;5.13;2.60;;;20.00;96.10;;;;;;5053390;28;20104;-62
2021/08/23 09:02:19;;;;;;;3.08;2.08;;;20.10;96.00;;;;;;5052600;28;20384;-62
2021/08/23 09:04:45;;;;;;;4.93;2.63;;;20.20;95.90;;;;;;5053496;28;20032;-62
2021/08/23 09:07:21;;;;;;;4.55;2.72;;;20.30;95.70;;;;;;5051986;28;20029;-62
2021/08/23 09:16:48;;;;;;;5.03;2.17;;;20.50;95.10;;;;;;4951802;28;20035;-62
2021/08/23 09:19:26;;;;;;;4.22;1.88;;;20.60;95.00;;;;;;4999514;28;20045;-62
2021/08/23 09:22:07;;;;;;;3.08;2.10;;;20.80;94.90;;;;;;5053078;28;20025;-62
2021/08/23 09:24:35;;;;;;;4.60;2.28;;;21.10;94.70;;;;;;5053120;28;20019;-62
2021/08/23 09:27:13;;;;;;;3.78;2.15;;;21.20;94.40;;;;;;5052804;28;20036;-62
2021/08/23 09:29:49;;;;;;;3.17;1.67;;;21.30;94.20;;;;;;5053040;28;20024;-62
2021/08/23 09:32:18;;;;;;;4.13;2.15;;;21.40;94.00;;;;;;5034879;28;20389;-62
2021/08/23 09:34:45;;;;;;;4.05;1.70;;;21.40;93.80;;;;;;5052915;28;20024;-62
2021/08/23 09:37:16;;;;;;;2.40;1.48;;;21.40;93.70;;;;;;5052696;28;20029;-62
2021/08/23 09:39:41;;;;;;;7.15;2.20;;;21.40;93.70;;;;;;5052845;28;20029;-62
2021/08/23 09:42:07;;;;;;;3.13;1.58;;;21.30;93.50;;;;;;5052606;28;20048;-62
2021/08/23 09:44:40;;;;;;;3.25;1.67;;;21.30;93.50;;;;;;5052467;28;20060;-62
2021/08/23 09:47:06;;;;;;;3.30;1.73;;;21.40;93.40;;;;;;5052317;28;20408;-62
2021/08/23 09:49:40;;;;;;;4.13;2.03;;;21.60;93.20;;;;;;5034755;28;20075;-62
2021/08/23 09:52:07;;;;;;;4.22;1.85;;;21.60;92.70;;;;;;5020221;28;20032;-62
2021/08/23 09:54:34;;;;;;;3.28;1.55;;;21.60;92.40;;;;;;5052643;28;20432;-62
2021/08/23 09:57:00;;;;;;;4.28;1.77;;;21.50;92.20;;;;;;5051725;28;20079;-62
2021/08/23 10:00:21;;;;;;;3.03;1.63;;;21.60;92.00;;;;;;5052491;28;20029;-62
2021/08/23 10:02:48;;;;;;;4.20;2.05;;;21.70;91.90;;;;;;5049843;28;20041;-62
2021/08/23 10:05:19;;;;;;;2.97;1.92;;;21.80;91.70;;;;;;5051002;28;20025;-62
2021/08/23 10:07:45;;;;;;;4.93;2.00;;;22.00;91.10;;;;;;5051051;28;20067;-62
2021/08/23 10:10:12;;;;;;;3.13;1.90;;;22.10;90.80;;;;;;5051322;28;20033;-62
2021/08/23 10:12:38;;;;;;;4.57;1.60;;;22.10;90.80;;;;;;5051198;28;20554;-62
2021/08/23 10:15:07;;;;;;;3.40;1.70;;;22.30;90.50;;;;;;5051348;28;20021;-62
2021/08/23 10:17:37;;;;;;;3.25;1.98;;;22.40;90.30;;;;;;5049422;28;20429;-62
2021/08/23 10:20:05;;;;;;;4.35;1.95;;;22.60;90.00;;;;;;5050773;28;20143;-62
2021/08/23 10:22:47;;;;;;;4.88;2.10;;;22.80;89.20;;;;;;5050957;28;20025;-62
2021/08/23 10:25:13;;;;;;;3.38;1.75;;;22.90;88.40;;;;;;5033395;28;20021;-62
2021/08/23 10:28:06;;;;;;;2.17;1.30;;;23.10;88.60;;;;;;5050905;28;20020;-62
2021/08/23 10:31:04;;;;;;;3.10;1.70;;;23.30;88.20;;;;;;5049179;28;20481;-62
2021/08/23 10:36:49;;;;;;;3.55;1.70;;;23.80;86.90;;;;;;4993824;28;20048;-62
2021/08/23 10:39:20;;;;;;;3.92;2.13;;;23.70;85.40;;;;;;5054051;28;20036;-63
2021/08/23 10:41:46;;;;;;;3.25;1.65;;;23.50;85.30;;;;;;5056192;28;20036;-62
2021/08/23 10:44:12;;;;;;;3.42;1.75;;;23.40;85.30;;;;;;5055959;28;20029;-63
2021/08/23 10:46:39;;;;;;;4.30;2.40;;;23.20;85.60;;;;;;5056133;28;20045;-62
2021/08/23 10:49:10;;;;;;;4.25;1.85;;;23.10;86.30;;;;;;5055956;28;20057;-62
2021/08/23 10:51:39;;;;;;;4.95;1.92;;;23.30;86.60;;;;;;5042307;28;20116;-63
2021/08/23 10:54:25;;;;;;;2.40;1.40;;;23.50;85.90;;;;;;5055454;28;20396;-62
2021/08/23 10:56:59;;;;;;;2.53;1.55;;;23.80;85.50;;;;;;5055339;28;20286;-62
2021/08/23 10:59:36;;;;;;;2.70;1.60;;;24.00;85.00;;;;;;5054422;28;20025;-63
2021/08/23 11:02:01;;;;;;;2.50;1.60;;;24.10;84.10;;;;;;5055139;28;20072;-62
2021/08/23 11:04:34;;;;;;;2.53;1.38;;;24.20;84.30;;;;;;5055455;28;20469;-62
2021/08/23 11:07:01;;;;;;;3.63;1.35;;;24.20;84.30;;;;;;5051438;28;20032;-63
2021/08/23 11:09:32;;;;;;;3.33;1.60;;;24.30;84.30;;;;;;5052109;28;20477;-62
2021/08/23 11:12:09;;;;;;;2.75;1.40;;;24.30;83.80;;;;;;5051293;28;20108;-62
2021/08/23 11:14:49;;;;;;;1.85;1.30;;;24.90;83.60;;;;;;5054047;28;20033;-62
2021/08/23 11:17:32;;;;;;;2.08;1.30;;;25.60;82.30;;;;;;5054626;28;20052;-62
2021/08/23 11:20:06;;;;;;;2.72;1.40;;;26.60;80.80;;;;;;5054295;28;20021;-62
2021/08/23 11:22:32;;;;;;;3.15;1.52;;;26.80;77.20;;;;;;5030094;28;20128;-62
2021/08/23 11:24:58;;;;;;;1.40;0.93;;;26.60;76.30;;;;;;5054248;28;20025;-63
2021/08/23 11:27:23;;;;;;;3.05;1.20;;;26.40;76.80;;;;;;5051166;28;20099;-62
2021/08/23 11:29:58;;;;;;;2.75;1.02;;;26.20;77.40;;;;;;5029474;28;20076;-63
2021/08/23 11:32:41;;;;;;;1.85;1.23;;;26.20;77.90;;;;;;5044700;28;20040;-63
2021/08/23 11:35:07;;;;;;;2.60;1.60;;;26.10;77.80;;;;;;5045745;28;20136;-62
2021/08/23 11:37:32;;;;;;;2.83;1.40;;;26.00;77.60;;;;;;5054148;28;20143;-62
2021/08/23 11:40:06;;;;;;;3.10;1.35;;;26.20;77.10;;;;;;5050803;28;20480;-62
2021/08/23 11:42:31;;;;;;;2.13;1.35;;;26.40;76.60;;;;;;5036187;28;20025;-62
2021/08/23 11:44:57;;;;;;;3.80;1.83;;;26.60;75.80;;;;;;5050881;28;20040;-62
2021/08/23 11:47:34;;;;;;;3.33;1.42;;;26.70;75.00;;;;;;5050524;28;20040;-62
2021/08/23 11:50:01;;;;;;;3.80;1.15;;;26.90;74.40;;;;;;5052612;28;20014;-62
2021/08/23 11:52:27;;;;;;;2.72;1.40;;;27.10;74.50;;;;;;5035915;28;20469;-63
2021/08/23 11:54:55;;;;;;;1.63;1.17;;;27.20;72.90;;;;;;5053794;28;20025;-63
2021/08/23 11:57:29;;;;;;;2.55;1.30;;;27.30;72.70;;;;;;5052558;28;20025;-62
2021/08/23 11:59:56;;;;;;;1.98;1.40;;;27.70;72.40;;;;;;5053027;28;20083;-62
2021/08/23 12:02:30;;;;;;;2.45;1.38;;;28.20;71.60;;;;;;5054064;28;20041;-63
2021/08/23 12:05:18;;;;;;;2.95;1.40;;;28.40;69.40;;;;;;5053732;28;20028;-63
2021/08/23 12:07:48;;;;;;;1.77;1.20;;;28.30;68.60;;;;;;5052885;28;20029;-62
2021/08/23 12:10:22;;;;;;;3.50;1.33;;;28.30;68.90;;;;;;5052947;28;20028;-62
2021/08/23 12:15:59;;;;;;;1.67;1.17;;;28.40;67.50;;;;;;5050867;28;20064;-63
2021/08/23 12:18:35;;;;;;;2.80;1.42;;;28.60;67.10;;;;;;5053962;28;20025;-62
2021/08/23 12:21:15;;;;;;;1.75;1.05;;;28.80;66.70;;;;;;5053608;28;20555;-62
2021/08/23 12:23:53;;;;;;;3.00;1.15;;;29.00;65.70;;;;;;5053757;28;20405;-63
2021/08/23 12:26:34;;;;;;;2.65;1.40;;;28.90;64.70;;;;;;5045241;28;20051;-62
2021/08/23 12:32:45;;;;;;;1.63;0.80;;;28.70;64.60;;;;;;4991418;28;20034;-62
2021/08/23 12:35:51;;;;;;;1.63;0.88;;;28.90;65.20;;;;;;4950885;28;20145;-62
2021/08/23 12:38:16;;;;;;;2.28;1.05;;;28.80;64.40;;;;;;4957982;28;20129;-63
2021/08/23 12:40:42;;;;;;;1.58;1.10;;;28.70;64.30;;;;;;4990901;28;20161;-63
2021/08/23 12:47:13;;;;;;;1.50;0.90;;;28.80;64.60;;;;;;4893840;29;20389;-62
2021/08/23 12:49:38;;;;;;;1.40;1.15;;;29.20;64.10;;;;;;4982615;28;20071;-62
2021/08/23 12:55:12;;;;;;;1.77;1.00;;;29.50;61.20;;;;;;5000432;28;20022;-63
2021/08/23 12:57:38;;;;;;;1.80;1.10;;;29.40;61.10;;;;;;5050110;28;20036;-61
2021/08/23 13:00:37;;;;;;;4.40;1.10;;;29.30;61.50;;;;;;5051157;28;20029;-62
2021/08/23 13:03:03;;;;;;;2.03;0.80;;;29.10;61.60;;;;;;5045708;28;20033;-62
2021/08/23 13:05:28;;;;;;;1.98;1.00;;;28.60;61.80;;;;;;5053247;28;20031;-62